createdAt,value
2022-12-17T00:01:47.804Z,45.25
2022-12-17T00:04:33.397Z,48.20
2022-12-17T00:07:18.744Z,46.83
2022-12-17T00:10:04.283Z,39.05
2022-12-17T00:12:49.727Z,43.42
2022-12-17T00:15:35.235Z,41.55
2022-12-17T00:18:24.760Z,45.00
2022-12-17T00:21:14.394Z,39.63
2022-12-17T00:24:00.012Z,43.53
2022-12-17T00:26:45.625Z,42.17
2022-12-17T00:29:31.168Z,52.22
2022-12-17T00:32:17.032Z,39.03
2022-12-17T00:35:02.550Z,40.67
2022-12-17T00:37:47.933Z,39.55
2022-12-17T00:40:33.370Z,41.33
2022-12-17T00:43:27.177Z,34.33
2022-12-17T00:46:12.982Z,34.00
2022-12-17T00:48:58.458Z,33.28
2022-12-17T00:51:44.160Z,24.38
2022-12-17T00:54:30.252Z,46.72
2022-12-17T00:57:15.634Z,32.28
2022-12-17T01:00:01.344Z,30.80
2022-12-17T01:02:46.857Z,31.13
2022-12-17T01:05:32.713Z,25.85
2022-12-17T01:08:29.303Z,29.25
2022-12-17T01:11:23.392Z,32.20
2022-12-17T01:14:08.865Z,27.17
2022-12-17T01:16:54.961Z,31.15
2022-12-17T01:19:41.999Z,25.38
2022-12-17T01:22:27.342Z,26.00
2022-12-17T01:25:12.919Z,30.70
2022-12-17T01:27:58.359Z,26.65
2022-12-17T01:30:43.908Z,23.75
2022-12-17T01:33:29.363Z,24.60
2022-12-17T01:36:16.359Z,25.58
2022-12-17T01:39:01.964Z,19.40
2022-12-17T01:41:47.287Z,19.92
2022-12-17T01:44:57.716Z,24.83
2022-12-17T01:47:48.713Z,29.10
2022-12-17T01:50:36.125Z,46.60
2022-12-17T01:53:23.960Z,48.70
2022-12-17T01:56:10.273Z,32.20
2022-12-17T01:58:56.151Z,23.33
2022-12-17T02:01:41.895Z,34.17
2022-12-17T02:04:28.643Z,30.45
2022-12-17T02:07:35.831Z,22.80
2022-12-17T02:10:30.915Z,20.80
2022-12-17T02:13:26.360Z,18.60
2022-12-17T02:16:19.060Z,20.42
2022-12-17T02:19:15.617Z,20.30
2022-12-17T02:22:03.729Z,25.40
2022-12-17T02:25:06.147Z,20.75
2022-12-17T02:27:52.558Z,17.85
2022-12-17T02:30:38.126Z,25.50
2022-12-17T02:33:23.773Z,20.88
2022-12-17T02:36:16.147Z,21.48
2022-12-17T02:39:01.512Z,20.00
2022-12-17T02:42:09.262Z,20.38
2022-12-17T02:44:55.852Z,16.10
2022-12-17T02:47:42.679Z,18.38
2022-12-17T02:50:30.227Z,20.02
2022-12-17T02:53:18.760Z,23.75
2022-12-17T02:56:04.581Z,18.90
2022-12-17T02:58:49.844Z,18.13
2022-12-17T03:01:35.876Z,15.70
2022-12-17T03:04:21.275Z,16.27
2022-12-17T03:07:06.753Z,17.88
2022-12-17T03:09:52.046Z,16.25
2022-12-17T03:12:37.416Z,16.83
2022-12-17T03:15:23.132Z,17.42
2022-12-17T03:18:08.432Z,14.70
2022-12-17T03:20:53.933Z,14.68
2022-12-17T03:23:39.546Z,15.13
2022-12-17T03:26:24.792Z,17.52
2022-12-17T03:29:10.312Z,15.00
2022-12-17T03:31:55.629Z,15.43
2022-12-17T03:34:41.027Z,19.42
2022-12-17T03:37:26.638Z,17.23
2022-12-17T03:40:12.150Z,16.52
2022-12-17T03:42:57.725Z,15.93
2022-12-17T03:45:43.115Z,18.15
2022-12-17T03:48:31.410Z,18.27
2022-12-17T03:51:17.620Z,14.65
2022-12-17T03:54:03.729Z,20.90
2022-12-17T03:56:49.243Z,19.52
2022-12-17T03:59:34.557Z,14.65
2022-12-17T04:02:20.220Z,19.50
2022-12-17T04:05:05.606Z,18.15
2022-12-17T04:07:51.082Z,15.45
2022-12-17T04:10:36.630Z,14.95
2022-12-17T04:13:21.800Z,16.02
2022-12-17T04:16:07.193Z,11.18
2022-12-17T04:18:52.690Z,13.80
2022-12-17T04:21:51.553Z,15.57
2022-12-17T04:24:37.133Z,10.23
2022-12-17T04:27:22.621Z,15.32
2022-12-17T04:30:08.218Z,13.77
2022-12-17T04:32:53.868Z,12.35
2022-12-17T04:35:39.042Z,14.18
2022-12-17T04:38:24.407Z,13.13
2022-12-17T04:41:09.883Z,15.65
2022-12-17T04:43:59.685Z,15.52
2022-12-17T04:46:48.404Z,19.42
2022-12-17T04:49:33.588Z,15.73
2022-12-17T04:52:19.177Z,18.05
2022-12-17T04:55:04.714Z,13.85
2022-12-17T04:57:50.075Z,16.50
2022-12-17T05:00:35.579Z,16.98
2022-12-17T05:03:34.555Z,13.70
2022-12-17T05:06:20.660Z,11.32
2022-12-17T05:09:06.147Z,12.85
2022-12-17T05:11:51.596Z,14.02
2022-12-17T05:14:37.102Z,17.92
2022-12-17T05:17:22.737Z,16.13
2022-12-17T05:20:07.874Z,14.07
2022-12-17T05:22:53.305Z,17.23
2022-12-17T05:25:39.005Z,14.30
2022-12-17T05:28:24.554Z,12.95
2022-12-17T05:31:11.785Z,22.17
2022-12-17T05:33:57.038Z,14.48
2022-12-17T05:36:42.555Z,16.63
2022-12-17T05:39:28.156Z,13.75
2022-12-17T05:42:13.802Z,20.20
2022-12-17T05:44:59.123Z,13.30
2022-12-17T05:47:44.686Z,24.75
2022-12-17T05:50:29.985Z,24.95
2022-12-17T05:53:25.285Z,16.35
2022-12-17T05:56:11.310Z,14.25
2022-12-17T05:58:58.020Z,17.02
2022-12-17T06:01:43.676Z,11.48
2022-12-17T06:04:29.292Z,11.98
2022-12-17T06:07:14.818Z,13.38
2022-12-17T06:10:00.174Z,12.68
2022-12-17T06:12:45.634Z,17.63
2022-12-17T06:15:31.009Z,21.30
2022-12-17T06:18:17.317Z,26.02
2022-12-17T06:21:03.291Z,21.38
2022-12-17T06:23:48.847Z,18.90
2022-12-17T06:26:34.410Z,19.50
2022-12-17T06:29:19.972Z,20.40
2022-12-17T06:32:05.388Z,21.50
2022-12-17T06:34:50.934Z,19.48
2022-12-17T06:37:36.080Z,24.67
2022-12-17T06:40:21.690Z,17.75
2022-12-17T06:43:14.270Z,13.63
2022-12-17T06:45:59.730Z,21.60
2022-12-17T06:48:45.497Z,16.40
2022-12-17T06:51:30.745Z,20.25
2022-12-17T06:54:16.193Z,19.88
2022-12-17T06:57:01.811Z,22.40
2022-12-17T06:59:47.214Z,21.67
2022-12-17T07:02:32.802Z,31.67
2022-12-17T07:05:18.249Z,22.88
2022-12-17T07:08:03.762Z,24.70
2022-12-17T07:10:49.376Z,17.90
2022-12-17T07:13:35.277Z,23.85
2022-12-17T07:16:20.895Z,26.50
2022-12-17T07:19:06.221Z,24.33
2022-12-17T07:21:51.638Z,27.85
2022-12-17T07:24:37.010Z,23.38
2022-12-17T07:27:22.401Z,21.05
2022-12-17T07:30:07.997Z,20.05
2022-12-17T07:32:53.541Z,21.15
2022-12-17T07:35:39.442Z,22.67
2022-12-17T07:38:24.821Z,28.42
2022-12-17T07:41:10.443Z,18.00
2022-12-17T07:43:56.040Z,23.80
2022-12-17T07:46:41.811Z,23.00
2022-12-17T07:49:27.185Z,25.70
2022-12-17T07:52:12.754Z,24.35
2022-12-17T07:54:58.091Z,33.47
2022-12-17T07:57:44.609Z,45.60
2022-12-17T08:00:30.917Z,30.60
2022-12-17T08:03:19.917Z,29.15
2022-12-17T08:06:05.642Z,33.17
2022-12-17T08:08:50.975Z,72.70
2022-12-17T08:11:36.410Z,47.20
2022-12-17T08:14:22.011Z,49.42
2022-12-17T08:17:07.273Z,51.35
2022-12-17T08:19:52.635Z,42.28
2022-12-17T08:22:38.333Z,53.30
2022-12-17T08:25:25.616Z,50.72
2022-12-17T08:28:50.088Z,46.38
2022-12-17T08:31:24.297Z,42.47
2022-12-17T08:34:09.894Z,62.75
2022-12-17T08:36:55.420Z,52.42
2022-12-17T08:39:40.910Z,39.58
2022-12-17T08:42:26.162Z,36.70
2022-12-17T08:45:11.595Z,39.25
2022-12-17T08:48:02.054Z,38.10
2022-12-17T08:50:48.619Z,28.45
2022-12-17T08:53:35.160Z,25.17
2022-12-17T08:56:20.708Z,25.08
2022-12-17T08:59:06.178Z,25.35
2022-12-17T09:01:51.529Z,32.05
2022-12-17T09:04:36.875Z,30.02
2022-12-17T09:07:22.262Z,26.05
2022-12-17T09:10:07.796Z,23.25
2022-12-17T09:12:53.398Z,20.92
2022-12-17T09:15:38.896Z,36.90
2022-12-17T09:18:24.464Z,22.83
2022-12-17T09:21:14.084Z,83.03
2022-12-17T09:23:59.494Z,37.85
2022-12-17T09:26:44.967Z,45.72
2022-12-17T09:29:30.445Z,58.83
2022-12-17T09:32:15.826Z,64.05
2022-12-17T09:35:01.386Z,49.92
2022-12-17T09:37:46.935Z,57.70
2022-12-17T09:40:42.883Z,68.03
2022-12-17T09:44:01.864Z,76.50
2022-12-17T09:47:03.820Z,37.70
2022-12-17T09:49:49.235Z,20.52
2022-12-17T09:52:48.438Z,19.05
2022-12-17T09:55:39.503Z,20.40
2022-12-17T09:58:32.805Z,19.83
2022-12-17T10:01:18.333Z,28.33
2022-12-17T10:04:05.603Z,20.77
2022-12-17T10:06:51.871Z,22.42
2022-12-17T10:09:38.621Z,22.08
2022-12-17T10:12:38.121Z,24.02
2022-12-17T10:15:28.809Z,62.13
2022-12-17T10:18:14.454Z,28.27
2022-12-17T10:21:11.156Z,41.38
2022-12-17T10:23:56.640Z,26.38
2022-12-17T10:26:47.302Z,24.55
2022-12-17T10:29:42.558Z,26.27
2022-12-17T10:32:35.405Z,20.20
2022-12-17T10:35:40.200Z,23.73
2022-12-17T10:38:48.719Z,23.55
2022-12-17T10:41:47.424Z,25.00
2022-12-17T10:44:41.525Z,27.30
2022-12-17T10:47:34.042Z,36.13
2022-12-17T10:50:45.323Z,40.55
2022-12-17T10:53:48.489Z,31.65
2022-12-17T10:56:43.473Z,37.38
2022-12-17T10:59:41.189Z,35.53
2022-12-17T11:02:38.887Z,59.70
2022-12-17T11:05:38.609Z,62.22
2022-12-17T11:08:24.654Z,82.15
2022-12-17T11:11:10.120Z,58.47
2022-12-17T11:14:05.182Z,42.58
2022-12-17T11:17:07.169Z,38.60
2022-12-17T11:20:04.432Z,36.38
2022-12-17T11:23:11.336Z,33.45
2022-12-17T11:26:34.353Z,34.05
2022-12-17T11:29:19.874Z,40.40
2022-12-17T11:32:28.929Z,39.75
2022-12-17T11:35:46.042Z,28.63
2022-12-17T11:38:34.200Z,48.63
2022-12-17T11:41:46.661Z,32.30
2022-12-17T11:44:52.041Z,35.30
2022-12-17T11:47:59.702Z,30.73
2022-12-17T11:51:07.753Z,42.08
2022-12-17T11:54:22.166Z,32.72
2022-12-17T11:57:36.283Z,39.05
2022-12-17T12:00:42.359Z,43.30
2022-12-17T12:03:48.158Z,34.85
2022-12-17T12:07:06.728Z,42.70
2022-12-17T12:10:02.085Z,44.88
2022-12-17T12:13:08.774Z,38.72
2022-12-17T12:15:59.029Z,45.00
2022-12-17T12:18:53.955Z,45.22
2022-12-17T12:22:22.688Z,32.78
2022-12-17T12:25:46.633Z,35.08
2022-12-17T12:28:51.794Z,40.03
2022-12-17T12:31:53.174Z,36.13
2022-12-17T12:34:47.393Z,39.17
2022-12-17T12:37:36.111Z,40.17
2022-12-17T12:40:21.513Z,35.80
2022-12-17T12:43:24.136Z,35.22
2022-12-17T12:46:27.015Z,42.90
2022-12-17T12:49:17.561Z,33.55
2022-12-17T12:52:03.126Z,41.00
2022-12-17T12:54:50.957Z,38.97
2022-12-17T12:57:55.775Z,40.17
2022-12-17T13:00:41.336Z,40.70
2022-12-17T13:03:55.908Z,42.30
2022-12-17T13:06:47.325Z,43.17
2022-12-17T13:09:17.071Z,35.45
2022-12-17T13:12:09.760Z,36.00
2022-12-17T13:17:17.605Z,37.47
2022-12-17T13:20:21.965Z,35.90
2022-12-17T13:22:51.690Z,37.78
2022-12-17T13:25:21.695Z,36.63
2022-12-17T13:27:49.273Z,38.97
2022-12-17T13:30:18.670Z,43.78
2022-12-17T13:33:22.377Z,41.80
2022-12-17T13:36:26.674Z,39.60
2022-12-17T13:39:25.869Z,37.50
2022-12-17T13:41:56.406Z,30.65
2022-12-17T13:44:25.274Z,32.95
2022-12-17T13:46:54.146Z,35.58
2022-12-17T13:49:27.022Z,29.13
2022-12-17T13:52:11.730Z,32.90
2022-12-17T13:54:39.041Z,33.70
2022-12-17T13:57:23.132Z,35.55
2022-12-17T13:59:55.125Z,39.92
2022-12-17T14:02:33.195Z,34.10
2022-12-17T14:05:07.404Z,37.38
2022-12-17T14:07:38.066Z,38.28
2022-12-17T14:10:06.116Z,38.75
2022-12-17T14:12:35.370Z,39.83
2022-12-17T14:15:15.803Z,40.22
2022-12-17T14:17:48.736Z,40.72
2022-12-17T14:20:22.528Z,38.88
2022-12-17T14:23:14.855Z,39.38
2022-12-17T14:25:43.944Z,42.67
2022-12-17T14:28:29.387Z,50.60
2022-12-17T14:34:08.488Z,44.08
2022-12-17T14:36:40.706Z,49.60
2022-12-17T14:39:29.173Z,48.90
2022-12-17T14:42:25.693Z,51.25
2022-12-17T14:44:59.759Z,41.28
2022-12-17T14:47:28.240Z,52.45
2022-12-17T14:49:59.316Z,53.03
2022-12-17T14:52:44.422Z,44.50
2022-12-17T14:55:23.323Z,43.15
2022-12-17T14:57:51.546Z,38.20
2022-12-17T15:00:19.003Z,64.43
2022-12-17T15:02:52.090Z,48.45
2022-12-17T15:05:19.031Z,52.90
2022-12-17T15:07:45.913Z,63.55
2022-12-17T15:10:16.440Z,122.45
2022-12-17T15:12:43.992Z,70.45
2022-12-17T15:15:15.198Z,89.85
2022-12-17T15:17:42.066Z,51.75
2022-12-17T15:20:17.101Z,55.50
2022-12-17T15:22:43.930Z,58.67
2022-12-17T15:25:15.227Z,46.17
2022-12-17T15:27:42.148Z,53.73
2022-12-17T15:30:13.402Z,55.75
2022-12-17T15:32:40.202Z,60.50
2022-12-17T15:35:07.365Z,57.67
2022-12-17T15:37:34.115Z,84.82
2022-12-17T15:40:00.809Z,94.95
2022-12-17T15:42:46.164Z,109.43
2022-12-17T15:45:12.852Z,120.72
2022-12-17T15:47:39.476Z,128.82
2022-12-17T15:50:06.708Z,90.15
2022-12-17T15:52:33.617Z,128.20
2022-12-17T15:55:00.316Z,167.07
2022-12-17T15:57:26.947Z,170.48
2022-12-17T15:59:53.687Z,203.35
2022-12-17T16:02:20.478Z,155.88
2022-12-17T16:04:47.299Z,86.22
2022-12-17T16:07:14.033Z,87.22
2022-12-17T16:09:40.757Z,59.63
2022-12-17T16:12:07.520Z,62.33
2022-12-17T16:14:34.431Z,80.60
2022-12-17T16:17:01.136Z,73.28
2022-12-17T16:19:27.772Z,69.22
2022-12-17T16:21:54.430Z,68.38
2022-12-17T16:24:21.414Z,74.95
2022-12-17T16:26:48.038Z,78.10
2022-12-17T16:29:14.913Z,62.70
2022-12-17T16:31:41.614Z,57.65
2022-12-17T16:34:09.847Z,59.63
2022-12-17T16:36:36.976Z,61.47
2022-12-17T16:39:04.322Z,58.88
2022-12-17T16:41:31.564Z,63.78
2022-12-17T16:43:58.406Z,61.42
2022-12-17T16:46:32.271Z,86.95
2022-12-17T16:49:04.431Z,97.78
2022-12-17T16:51:31.629Z,121.10
2022-12-17T16:53:59.109Z,107.55
2022-12-17T16:56:27.961Z,123.38
2022-12-17T16:58:55.268Z,92.53
2022-12-17T17:01:24.360Z,80.68
2022-12-17T17:03:51.434Z,88.60
2022-12-17T17:06:19.365Z,105.38
2022-12-17T17:08:46.548Z,118.82
2022-12-17T17:11:14.802Z,77.68
2022-12-17T17:13:42.161Z,79.65
2022-12-17T17:16:10.024Z,66.20
2022-12-17T17:18:38.113Z,77.10
2022-12-17T17:21:34.406Z,74.65
2022-12-17T17:24:15.392Z,72.25
2022-12-17T17:26:45.323Z,97.03
2022-12-17T17:29:12.305Z,111.13
2022-12-17T17:34:26.013Z,83.70
2022-12-17T17:36:52.692Z,65.72
2022-12-17T17:39:19.420Z,66.63
2022-12-17T17:41:46.197Z,57.78
2022-12-17T17:44:14.096Z,71.65
2022-12-17T17:46:41.333Z,63.78
2022-12-17T17:49:08.791Z,56.03
2022-12-17T17:54:31.230Z,67.45
2022-12-17T17:56:58.022Z,80.75
2022-12-17T17:59:31.184Z,99.80
2022-12-17T18:02:00.732Z,104.07
2022-12-17T18:04:28.186Z,107.28
2022-12-17T18:09:41.738Z,53.60
2022-12-17T18:12:46.995Z,55.70
2022-12-17T18:15:15.785Z,77.05
2022-12-17T18:17:45.090Z,70.55
2022-12-17T18:20:12.355Z,62.65
2022-12-17T18:22:39.063Z,55.58
2022-12-17T18:25:05.980Z,76.00
2022-12-17T18:27:32.739Z,80.75
2022-12-17T18:29:59.381Z,92.60
2022-12-17T18:32:26.115Z,93.95
2022-12-17T18:34:52.917Z,116.53
2022-12-17T18:37:19.675Z,110.28
2022-12-17T18:39:46.409Z,104.68
2022-12-17T18:42:31.454Z,87.22
2022-12-17T18:44:58.171Z,72.68
2022-12-17T18:47:25.467Z,72.82
2022-12-17T18:49:52.306Z,56.90
2022-12-17T18:52:19.018Z,69.65
2022-12-17T18:54:45.696Z,59.00
2022-12-17T18:57:12.350Z,62.13
2022-12-17T18:59:40.947Z,56.33
2022-12-17T19:02:15.073Z,71.22
2022-12-17T19:04:42.206Z,82.00
2022-12-17T19:07:09.121Z,111.13
2022-12-17T19:09:36.512Z,99.20
2022-12-17T19:12:05.284Z,92.95
2022-12-17T19:14:32.395Z,57.63
2022-12-17T19:16:59.522Z,54.75
2022-12-17T19:19:26.522Z,51.15
2022-12-17T19:21:55.086Z,50.38
2022-12-17T19:24:22.859Z,55.17
2022-12-17T19:26:50.348Z,48.28
2022-12-17T19:29:18.491Z,55.35
2022-12-17T19:31:45.764Z,60.35
2022-12-17T19:34:14.589Z,56.85
2022-12-17T19:36:42.085Z,65.57
2022-12-17T19:39:12.036Z,87.45
2022-12-17T19:41:39.263Z,106.68
2022-12-17T19:44:08.157Z,87.95
2022-12-17T19:46:36.083Z,89.70
2022-12-17T19:49:03.766Z,86.10
2022-12-17T19:51:31.428Z,64.40
2022-12-17T19:54:03.183Z,69.50
2022-12-17T19:56:35.063Z,57.40
2022-12-17T19:59:07.659Z,56.42
2022-12-17T20:01:37.780Z,60.63
2022-12-17T20:04:05.584Z,50.10
2022-12-17T20:06:33.904Z,52.08
2022-12-17T20:09:01.743Z,65.15
2022-12-17T20:11:35.167Z,78.90
2022-12-17T20:14:07.038Z,69.35
2022-12-17T20:16:37.255Z,69.93
2022-12-17T20:19:06.734Z,59.40
2022-12-17T20:21:33.960Z,51.42
2022-12-17T20:24:00.687Z,59.33
2022-12-17T20:26:30.826Z,49.88
2022-12-17T20:28:59.105Z,45.13
2022-12-17T20:31:27.465Z,47.38
2022-12-17T20:33:54.523Z,54.22
2022-12-17T20:36:21.917Z,44.65
2022-12-17T20:38:48.821Z,47.15
2022-12-17T20:41:21.549Z,52.67
2022-12-17T20:43:48.724Z,55.00
2022-12-17T20:46:17.309Z,50.95
2022-12-17T20:48:44.917Z,68.30
2022-12-17T20:51:17.984Z,60.55
2022-12-17T20:53:45.975Z,58.83
2022-12-17T20:56:16.989Z,60.15
2022-12-17T20:58:44.112Z,47.45
2022-12-17T21:01:19.841Z,44.65
2022-12-17T21:03:49.410Z,46.15
2022-12-17T21:06:28.511Z,46.53
2022-12-17T21:08:55.829Z,51.70
2022-12-17T21:11:26.372Z,49.20
2022-12-17T21:13:54.428Z,50.00
2022-12-17T21:16:30.093Z,42.28
2022-12-17T21:18:58.284Z,50.97
2022-12-17T21:21:27.731Z,44.08
2022-12-17T21:23:55.795Z,56.17
2022-12-17T21:26:27.035Z,52.80
2022-12-17T21:28:56.393Z,51.40
2022-12-17T21:31:23.145Z,56.95
2022-12-17T21:33:51.462Z,46.55
2022-12-17T21:36:20.030Z,53.92
2022-12-17T21:38:47.345Z,54.55
2022-12-17T21:41:20.656Z,62.20
2022-12-17T21:43:47.617Z,51.55
2022-12-17T21:46:14.684Z,52.10
2022-12-17T21:48:42.922Z,54.00
2022-12-17T21:51:11.983Z,50.65
2022-12-17T21:53:42.679Z,50.70
2022-12-17T21:56:19.093Z,50.20
2022-12-17T21:58:46.805Z,48.15
2022-12-17T22:01:20.013Z,50.95
2022-12-17T22:03:53.998Z,68.75
2022-12-17T22:06:25.389Z,49.28
2022-12-17T22:09:03.732Z,51.92
2022-12-17T22:11:39.056Z,53.00
2022-12-17T22:14:10.055Z,49.55
2022-12-17T22:16:47.272Z,54.63
2022-12-17T22:19:23.296Z,49.53
2022-12-17T22:21:57.846Z,47.63
2022-12-17T22:24:25.536Z,59.08
2022-12-17T22:26:59.856Z,46.03
2022-12-17T22:29:46.639Z,73.30
2022-12-17T22:32:32.052Z,75.00
2022-12-17T22:36:20.379Z,94.35
2022-12-17T22:40:17.379Z,78.82
2022-12-17T22:51:46.024Z,51.08
2022-12-17T22:54:13.921Z,50.95
2022-12-17T22:57:35.266Z,50.08
2022-12-17T22:59:29.490Z,49.25
2022-12-17T23:01:56.347Z,51.63
2022-12-17T23:04:23.110Z,58.95
2022-12-17T23:06:49.874Z,51.05
2022-12-17T23:09:19.237Z,50.05
2022-12-17T23:11:47.790Z,49.05
2022-12-17T23:14:14.627Z,44.97
2022-12-17T23:16:41.674Z,50.75
2022-12-17T23:19:08.895Z,72.95
2022-12-17T23:21:36.077Z,70.28
2022-12-17T23:24:03.823Z,56.22
2022-12-17T23:26:33.657Z,51.67
2022-12-17T23:29:10.321Z,44.83
2022-12-17T23:31:40.532Z,51.22
2022-12-17T23:34:08.074Z,45.33
2022-12-17T23:36:36.219Z,48.60
2022-12-17T23:39:03.509Z,45.33
2022-12-17T23:41:31.070Z,40.72
2022-12-17T23:43:59.020Z,45.60
2022-12-17T23:46:27.698Z,48.72
2022-12-17T23:48:55.048Z,47.40
2022-12-17T23:51:23.582Z,49.58
2022-12-17T23:53:50.608Z,79.45
2022-12-17T23:56:22.663Z,93.10
2022-12-17T23:58:53.102Z,83.45
